WXM80 ListenWXM80 Stop

You find our weather info also at:

UK Metoffice

WeatherCloud

Weather Underground

Northeastern Weather Network

AWEKAS

Citizen Weather Observer Program (CWOP)

HAMweather, WeatherForYou, PWS Weather


Weather Underground History page Text

Daily Summary for January 19, 2016 Units:  English    Metric   Both
« Previous Day
Next Day »
Daily Weekly Monthly Yearly Custom
  High: Low: Average:
Temperature: 29.3 °F 18.7 °F 24.3 °F
Dew Point: 19.7 °F 8.5 °F 12.1 °F
Humidity: 67 % 48 % 60 %
Wind Speed: 19.0 mph 5.0 mph 10.1 mph
Wind Gust: 33.4 mph - -
Wind:- - West
Pressure: 30.05 in 29.90 in -
Precipitation: 0.00 in    
Historical Graphs
 
 
Tabular Data for January 19, 2016
Time Temperature Dew Point Pressure Wind Wind Speed Wind Gust Humidity Rainfall Rate (Hourly)
00:01 20.6 °F 8.5 °F 29.92 in NW 8.9 mph 16.1 mph 59 % 0.00 in
00:06 20.5 °F 9.2 °F 29.92 in WSW 9.3 mph 11.5 mph 61 % 0.00 in
00:11 20.5 °F 9.2 °F 29.92 in SW 8.2 mph 18.4 mph 61 % 0.00 in
00:26 20.3 °F 9.0 °F 29.92 in NW 10.5 mph 19.0 mph 61 % 0.00 in
00:32 20.2 °F 8.5 °F 29.92 in West 10.5 mph 19.6 mph 60 % 0.00 in
00:37 20.2 °F 8.5 °F 29.92 in WNW 12.7 mph 23.0 mph 60 % 0.00 in
00:42 20.2 °F 8.5 °F 29.92 in WSW 7.2 mph 17.3 mph 60 % 0.00 in
00:47 20.2 °F 8.9 °F 29.92 in WSW 9.0 mph 16.1 mph 61 % 0.00 in
00:52 20.1 °F 8.8 °F 29.92 in West 10.6 mph 17.3 mph 61 % 0.00 in
00:57 20.1 °F 8.8 °F 29.91 in WSW 9.1 mph 15.0 mph 61 % 0.00 in
01:02 20.1 °F 9.2 °F 29.92 in West 10.1 mph 12.7 mph 62 % 0.00 in
01:07 20.0 °F 9.1 °F 29.91 in WSW 6.5 mph 13.0 mph 62 % 0.00 in
01:12 20.0 °F 9.1 °F 29.92 in West 10.8 mph 18.4 mph 62 % 0.00 in
01:17 20.0 °F 8.7 °F 29.92 in WSW 8.7 mph 19.6 mph 61 % 0.00 in
01:23 19.9 °F 9.0 °F 29.92 in WNW 11.4 mph 13.8 mph 62 % 0.00 in
01:28 19.9 °F 9.0 °F 29.92 in West 10.5 mph 19.6 mph 62 % 0.00 in
01:33 19.9 °F 9.0 °F 29.93 in West 6.5 mph 13.8 mph 62 % 0.00 in
01:43 19.8 °F 9.2 °F 29.92 in WNW 11.5 mph 19.6 mph 63 % 0.00 in
01:48 19.8 °F 8.9 °F 29.92 in West 14.5 mph 22.0 mph 62 % 0.00 in
01:53 19.8 °F 8.9 °F 29.92 in West 11.1 mph 17.0 mph 62 % 0.00 in
02:03 19.7 °F 9.1 °F 29.92 in WSW 7.8 mph 16.1 mph 63 % 0.00 in
02:08 19.7 °F 9.1 °F 29.93 in West 6.4 mph 11.5 mph 63 % 0.00 in
02:14 19.7 °F 9.1 °F 29.93 in WSW 11.9 mph 19.6 mph 63 % 0.00 in
02:19 19.7 °F 9.1 °F 29.93 in WSW 9.6 mph 23.0 mph 63 % 0.00 in
02:24 19.7 °F 8.8 °F 29.93 in SW 9.3 mph 18.4 mph 62 % 0.00 in
02:29 19.6 °F 8.7 °F 29.93 in West 5.5 mph 12.7 mph 62 % 0.00 in
02:34 19.6 °F 9.0 °F 29.93 in WSW 8.0 mph 13.8 mph 63 % 0.00 in
02:39 19.6 °F 9.0 °F 29.93 in West 11.2 mph 23.0 mph 63 % 0.00 in
02:44 19.5 °F 8.6 °F 29.93 in SW 10.1 mph 24.2 mph 62 % 0.00 in
02:49 19.5 °F 8.9 °F 29.93 in West 11.6 mph 12.0 mph 63 % 0.00 in
02:54 19.4 °F 8.8 °F 29.93 in West 9.6 mph 16.1 mph 63 % 0.00 in
02:59 19.4 °F 8.8 °F 29.93 in WNW 11.4 mph 20.7 mph 63 % 0.00 in
03:05 19.4 °F 8.8 °F 29.93 in West 9.7 mph 25.3 mph 63 % 0.00 in
03:10 19.4 °F 8.8 °F 29.93 in West 8.6 mph 10.0 mph 63 % 0.00 in
03:15 19.4 °F 8.8 °F 29.93 in WSW 11.3 mph 19.6 mph 63 % 0.00 in
03:20 19.4 °F 8.8 °F 29.93 in SSW 6.9 mph 16.1 mph 63 % 0.00 in
03:25 19.4 °F 9.2 °F 29.93 in NW 10.5 mph 19.6 mph 64 % 0.00 in
03:30 19.3 °F 9.1 °F 29.93 in WSW 11.5 mph 18.4 mph 64 % 0.00 in
03:35 19.3 °F 9.1 °F 29.93 in WSW 10.5 mph 13.8 mph 64 % 0.00 in
03:40 19.3 °F 9.1 °F 29.93 in WNW 6.6 mph 12.7 mph 64 % 0.00 in
03:50 19.3 °F 9.1 °F 29.93 in West 11.3 mph 18.0 mph 64 % 0.00 in
03:56 19.3 °F 9.1 °F 29.93 in West 10.7 mph 24.2 mph 64 % 0.00 in
04:01 19.3 °F 9.1 °F 29.93 in WSW 11.2 mph 17.0 mph 64 % 0.00 in
04:11 19.3 °F 9.4 °F 29.93 in West 7.8 mph 15.0 mph 65 % 0.00 in
04:16 19.3 °F 9.4 °F 29.93 in NW 11.1 mph 19.6 mph 65 % 0.00 in
04:21 19.3 °F 9.1 °F 29.94 in West 14.5 mph 21.9 mph 64 % 0.00 in
04:26 19.3 °F 9.4 °F 29.94 in WNW 8.2 mph 15.0 mph 65 % 0.00 in
04:31 19.3 °F 9.4 °F 29.94 in WSW 8.0 mph 19.6 mph 65 % 0.00 in
04:41 19.2 °F 9.0 °F 29.94 in West 9.3 mph 16.1 mph 64 % 0.00 in
04:47 19.1 °F 9.3 °F 29.94 in WSW 8.8 mph 16.1 mph 65 % 0.00 in
04:52 19.1 °F 8.9 °F 29.94 in WSW 10.1 mph 18.4 mph 64 % 0.00 in
04:57 19.1 °F 8.9 °F 29.93 in East 8.6 mph 17.3 mph 64 % 0.00 in
05:02 19.0 °F 8.8 °F 29.93 in NW 8.6 mph 21.9 mph 64 % 0.00 in
05:07 19.0 °F 9.2 °F 29.93 in West 15.0 mph 20.7 mph 65 % 0.00 in
05:12 19.0 °F 9.2 °F 29.93 in West 7.1 mph 15.0 mph 65 % 0.00 in
05:17 18.9 °F 8.7 °F 29.94 in WSW 7.9 mph 15.0 mph 64 % 0.00 in
05:22 18.9 °F 9.1 °F 29.94 in NW 6.3 mph 11.5 mph 65 % 0.00 in
05:27 18.9 °F 9.1 °F 29.94 in West 10.3 mph 18.4 mph 65 % 0.00 in
05:32 18.8 °F 8.6 °F 29.94 in WSW 10.0 mph 17.3 mph 64 % 0.00 in
05:38 18.8 °F 9.0 °F 29.94 in West 7.6 mph 18.4 mph 65 % 0.00 in
05:48 18.8 °F 8.6 °F 29.94 in West 14.9 mph 26.5 mph 64 % 0.00 in
05:53 18.7 °F 8.5 °F 29.94 in WSW 8.7 mph 18.4 mph 64 % 0.00 in
05:58 18.7 °F 8.9 °F 29.93 in West 7.4 mph 17.3 mph 65 % 0.00 in
06:08 18.7 °F 9.2 °F 29.94 in NW 11.5 mph 21.0 mph 66 % 0.00 in
06:13 18.7 °F 9.2 °F 29.94 in West 11.7 mph 20.0 mph 66 % 0.00 in
06:18 18.7 °F 8.9 °F 29.94 in West 10.0 mph 15.0 mph 65 % 0.00 in
06:24 18.8 °F 9.3 °F 29.94 in SW 11.4 mph 21.9 mph 66 % 0.00 in
06:34 18.8 °F 9.0 °F 29.95 in WSW 9.6 mph 15.0 mph 65 % 0.00 in
06:39 18.9 °F 9.4 °F 29.95 in WSW 9.3 mph 21.9 mph 66 % 0.00 in
06:44 18.9 °F 9.1 °F 29.95 in WNW 9.6 mph 18.4 mph 65 % 0.00 in
06:49 19.0 °F 9.2 °F 29.96 in NW 7.3 mph 13.8 mph 65 % 0.00 in
06:54 19.0 °F 9.2 °F 29.96 in NNW 7.6 mph 19.6 mph 65 % 0.00 in
06:59 19.0 °F 9.5 °F 29.95 in SW 5.0 mph 10.4 mph 66 % 0.00 in
07:04 19.0 °F 9.8 °F 29.95 in WSW 7.5 mph 17.0 mph 67 % 0.00 in
07:09 19.0 °F 9.5 °F 29.95 in WNW 6.9 mph 11.5 mph 66 % 0.00 in
07:15 19.0 °F 9.8 °F 29.95 in SW 8.5 mph 15.0 mph 67 % 0.00 in
07:20 19.0 °F 9.5 °F 29.95 in SW 6.0 mph 16.1 mph 66 % 0.00 in
07:25 19.0 °F 9.8 °F 29.95 in West 14.5 mph 24.2 mph 67 % 0.00 in
07:30 19.0 °F 9.8 °F 29.95 in West 7.0 mph 16.1 mph 67 % 0.00 in
07:35 19.1 °F 9.6 °F 29.95 in WSW 6.5 mph 12.0 mph 66 % 0.00 in
07:40 19.1 °F 9.6 °F 29.96 in WNW 12.8 mph 25.3 mph 66 % 0.00 in
07:45 19.2 °F 9.7 °F 29.96 in WNW 8.5 mph 21.9 mph 66 % 0.00 in
07:50 19.3 °F 9.4 °F 29.96 in West 7.6 mph 11.0 mph 65 % 0.00 in
07:55 19.3 °F 9.4 °F 29.97 in WNW 7.2 mph 11.5 mph 65 % 0.00 in
08:00 19.5 °F 9.6 °F 29.97 in West 9.5 mph 19.6 mph 65 % 0.00 in
08:06 19.6 °F 10.1 °F 29.97 in West 5.5 mph 11.5 mph 66 % 0.00 in
08:11 19.7 °F 9.8 °F 29.96 in WNW 9.4 mph 13.8 mph 65 % 0.00 in
08:16 19.8 °F 9.9 °F 29.95 in WSW 9.1 mph 16.1 mph 65 % 0.00 in
08:21 19.9 °F 10.0 °F 29.95 in WSW 6.8 mph 19.0 mph 65 % 0.00 in
08:26 20.0 °F 10.1 °F 29.96 in WNW 5.9 mph 11.5 mph 65 % 0.00 in
08:31 20.2 °F 10.3 °F 29.96 in West 7.6 mph 21.9 mph 65 % 0.00 in
08:36 20.4 °F 10.1 °F 29.96 in NW 12.0 mph 17.3 mph 64 % 0.00 in
08:41 20.6 °F 10.7 °F 29.95 in WSW 10.4 mph 25.3 mph 65 % 0.00 in
08:46 20.8 °F 10.9 °F 29.95 in WSW 7.9 mph 13.8 mph 65 % 0.00 in
08:51 21.1 °F 11.2 °F 29.96 in West 15.5 mph 20.0 mph 65 % 0.00 in
08:57 21.1 °F 10.1 °F 29.96 in NW 8.2 mph 18.4 mph 62 % 0.00 in
09:02 21.2 °F 10.9 °F 29.96 in WNW 8.0 mph 13.8 mph 64 % 0.00 in
09:07 21.3 °F 10.3 °F 29.96 in West 6.2 mph 16.1 mph 62 % 0.00 in
09:12 21.5 °F 10.5 °F 29.96 in WNW 12.4 mph 20.7 mph 62 % 0.00 in
09:17 21.5 °F 10.1 °F 29.96 in North 11.4 mph 18.0 mph 61 % 0.00 in
09:22 21.6 °F 10.2 °F 29.96 in West 12.0 mph 23.0 mph 61 % 0.00 in
09:27 21.8 °F 10.0 °F 29.96 in WSW 11.5 mph 15.0 mph 60 % 0.00 in
09:32 21.8 °F 10.0 °F 29.96 in West 9.9 mph 19.6 mph 60 % 0.00 in
09:37 21.9 °F 10.1 °F 29.97 in West 7.5 mph 12.0 mph 60 % 0.00 in
09:42 22.1 °F 10.3 °F 29.97 in NW 9.8 mph 26.5 mph 60 % 0.00 in
09:48 22.3 °F 10.5 °F 29.97 in West 6.9 mph 13.8 mph 60 % 0.00 in
09:53 22.5 °F 10.7 °F 29.97 in West 8.4 mph 18.4 mph 60 % 0.00 in
09:58 22.6 °F 10.0 °F 29.97 in West 12.5 mph 21.9 mph 58 % 0.00 in
10:03 22.6 °F 10.4 °F 29.97 in WNW 13.0 mph 23.0 mph 59 % 0.00 in
10:08 22.8 °F 9.8 °F 29.97 in NW 7.9 mph 13.8 mph 57 % 0.00 in
10:13 23.1 °F 10.1 °F 29.97 in NW 12.5 mph 21.9 mph 57 % 0.00 in
10:23 23.3 °F 10.3 °F 29.97 in NW 10.8 mph 15.0 mph 57 % 0.00 in
10:28 23.3 °F 10.3 °F 29.96 in WSW 12.5 mph 19.6 mph 57 % 0.00 in
10:39 23.6 °F 11.0 °F 29.96 in WSW 10.2 mph 18.0 mph 58 % 0.00 in
10:44 23.8 °F 10.8 °F 29.95 in NW 9.2 mph 19.6 mph 57 % 0.00 in
10:49 23.9 °F 10.9 °F 29.95 in West 8.2 mph 24.2 mph 57 % 0.00 in
10:54 24.0 °F 11.0 °F 29.95 in WSW 9.5 mph 19.6 mph 57 % 0.00 in
10:59 24.2 °F 11.1 °F 29.94 in West 12.8 mph 25.3 mph 57 % 0.00 in
11:09 24.6 °F 11.9 °F 29.94 in WNW 6.1 mph 18.4 mph 58 % 0.00 in
11:14 24.7 °F 12.0 °F 29.94 in WNW 12.8 mph 22.0 mph 58 % 0.00 in
11:24 24.9 °F 11.4 °F 29.93 in WNW 7.5 mph 17.3 mph 56 % 0.00 in
11:30 25.0 °F 11.9 °F 29.93 in NNW 10.9 mph 18.4 mph 57 % 0.00 in
11:35 25.1 °F 11.2 °F 29.93 in North 11.0 mph 16.1 mph 55 % 0.00 in
11:40 25.3 °F 11.8 °F 29.92 in NNW 11.1 mph 20.7 mph 56 % 0.00 in
11:45 25.5 °F 11.1 °F 29.92 in WSW 11.0 mph 21.9 mph 54 % 0.00 in
11:50 25.6 °F 11.2 °F 29.92 in NW 15.1 mph 23.0 mph 54 % 0.00 in
12:00 25.8 °F 12.2 °F 29.92 in West 9.6 mph 22.0 mph 56 % 0.00 in
12:05 25.8 °F 11.4 °F 29.92 in WNW 11.2 mph 19.6 mph 54 % 0.00 in
12:10 25.9 °F 11.5 °F 29.92 in WNW 10.7 mph 23.0 mph 54 % 0.00 in
12:15 26.1 °F 11.3 °F 29.92 in WNW 9.4 mph 20.7 mph 53 % 0.00 in
12:21 26.3 °F 11.5 °F 29.92 in WNW 10.2 mph 19.6 mph 53 % 0.00 in
12:26 26.5 °F 11.7 °F 29.92 in WNW 16.9 mph 33.4 mph 53 % 0.00 in
12:31 26.6 °F 11.3 °F 29.92 in WSW 12.8 mph 21.9 mph 52 % 0.00 in
12:36 26.9 °F 12.0 °F 29.91 in WSW 11.6 mph 23.0 mph 53 % 0.00 in
12:41 27.2 °F 12.3 °F 29.91 in WSW 10.9 mph 20.7 mph 53 % 0.00 in
12:46 27.4 °F 11.6 °F 29.92 in WNW 10.6 mph 23.0 mph 51 % 0.00 in
12:51 27.5 °F 12.2 °F 29.91 in NW 6.8 mph 16.1 mph 52 % 0.00 in
12:56 27.7 °F 12.8 °F 29.91 in WNW 6.8 mph 21.9 mph 53 % 0.00 in
13:01 27.6 °F 12.7 °F 29.91 in NNW 10.4 mph 24.2 mph 53 % 0.00 in
13:06 27.6 °F 12.2 °F 29.91 in WNW 6.4 mph 15.0 mph 52 % 0.00 in
13:12 27.8 °F 12.4 °F 29.92 in NNW 12.2 mph 18.4 mph 52 % 0.00 in
13:17 27.7 °F 12.3 °F 29.91 in West 11.8 mph 19.6 mph 52 % 0.00 in
13:22 27.7 °F 12.3 °F 29.91 in West 13.0 mph 25.3 mph 52 % 0.00 in
13:27 27.8 °F 12.9 °F 29.90 in West 9.0 mph 19.6 mph 53 % 0.00 in
13:32 27.9 °F 13.0 °F 29.90 in SW 10.2 mph 18.4 mph 53 % 0.00 in
13:37 28.0 °F 12.6 °F 29.91 in WNW 8.4 mph 16.1 mph 52 % 0.00 in
13:42 28.1 °F 12.7 °F 29.91 in NW 9.1 mph 12.0 mph 52 % 0.00 in
13:47 28.3 °F 12.9 °F 29.91 in West 12.4 mph 26.5 mph 52 % 0.00 in
13:52 28.4 °F 12.1 °F 29.91 in West 12.8 mph 21.9 mph 50 % 0.00 in
13:57 28.4 °F 12.1 °F 29.90 in WSW 8.8 mph 19.6 mph 50 % 0.00 in
14:03 28.5 °F 12.6 °F 29.91 in WNW 9.2 mph 19.6 mph 51 % 0.00 in
14:08 28.6 °F 12.7 °F 29.91 in NW 10.6 mph 21.9 mph 51 % 0.00 in
14:13 28.7 °F 12.8 °F 29.91 in North 8.6 mph 18.0 mph 51 % 0.00 in
14:18 28.7 °F 12.4 °F 29.92 in WNW 8.8 mph 18.4 mph 50 % 0.00 in
14:23 28.7 °F 12.4 °F 29.92 in WSW 9.4 mph 21.0 mph 50 % 0.00 in
14:28 28.7 °F 11.5 °F 29.92 in WSW 7.1 mph 17.3 mph 48 % 0.00 in
14:33 28.5 °F 11.7 °F 29.92 in WSW 12.1 mph 17.3 mph 49 % 0.00 in
14:38 28.4 °F 12.1 °F 29.92 in WNW 12.1 mph 20.7 mph 50 % 0.00 in
14:43 28.3 °F 11.6 °F 29.92 in West 10.1 mph 24.2 mph 49 % 0.00 in
14:54 28.3 °F 11.6 °F 29.93 in WNW 7.4 mph 23.0 mph 49 % 0.00 in
14:59 28.5 °F 12.2 °F 29.93 in NNW 5.6 mph 24.2 mph 50 % 0.00 in
15:04 28.5 °F 12.2 °F 29.93 in WSW 9.5 mph 13.8 mph 50 % 0.00 in
15:09 28.6 °F 12.3 °F 29.94 in West 12.3 mph 20.7 mph 50 % 0.00 in
15:14 28.6 °F 11.8 °F 29.94 in West 9.3 mph 16.1 mph 49 % 0.00 in
15:19 28.6 °F 12.7 °F 29.94 in NNW 9.9 mph 16.0 mph 51 % 0.00 in
15:24 28.6 °F 11.4 °F 29.94 in WNW 8.8 mph 13.8 mph 48 % 0.00 in
15:29 28.5 °F 11.7 °F 29.94 in WSW 10.1 mph 12.7 mph 49 % 0.00 in
15:34 28.7 °F 11.9 °F 29.94 in WNW 11.4 mph 24.0 mph 49 % 0.00 in
15:39 28.8 °F 12.9 °F 29.94 in NNW 9.8 mph 19.6 mph 51 % 0.00 in
15:45 28.9 °F 11.6 °F 29.94 in WSW 10.4 mph 20.7 mph 48 % 0.00 in
15:50 28.8 °F 12.0 °F 29.94 in West 13.9 mph 20.7 mph 49 % 0.00 in
15:55 28.9 °F 12.1 °F 29.94 in NW 11.5 mph 21.0 mph 49 % 0.00 in
16:00 28.9 °F 13.0 °F 29.94 in WNW 7.2 mph 19.0 mph 51 % 0.00 in
16:05 28.9 °F 12.1 °F 29.95 in NNW 15.9 mph 26.5 mph 49 % 0.00 in
16:10 28.8 °F 12.5 °F 29.95 in SW 13.3 mph 25.0 mph 50 % 0.00 in
16:15 28.8 °F 12.5 °F 29.96 in NW 12.3 mph 20.7 mph 50 % 0.00 in
16:20 28.7 °F 12.8 °F 29.95 in WNW 8.1 mph 15.0 mph 51 % 0.00 in
16:25 28.5 °F 12.6 °F 29.95 in WNW 9.8 mph 16.1 mph 51 % 0.00 in
16:30 28.4 °F 13.0 °F 29.96 in NW 11.8 mph 21.9 mph 52 % 0.00 in
16:36 28.0 °F 12.6 °F 29.96 in WSW 10.8 mph 20.7 mph 52 % 0.00 in
16:41 27.8 °F 12.4 °F 29.97 in NW 13.2 mph 26.5 mph 52 % 0.00 in
16:46 27.6 °F 12.7 °F 29.98 in WNW 19.0 mph 26.5 mph 53 % 0.00 in
16:51 27.5 °F 13.0 °F 29.98 in NW 9.5 mph 17.3 mph 54 % 0.00 in
16:56 27.4 °F 12.9 °F 29.98 in West 11.1 mph 18.4 mph 54 % 0.00 in
17:01 27.4 °F 13.3 °F 29.98 in WNW 11.9 mph 15.0 mph 55 % 0.00 in
17:06 27.3 °F 13.2 °F 29.98 in WSW 13.9 mph 24.2 mph 55 % 0.00 in
17:11 27.2 °F 13.1 °F 29.97 in West 11.8 mph 24.2 mph 55 % 0.00 in
17:16 27.3 °F 13.2 °F 29.98 in WNW 16.0 mph 31.1 mph 55 % 0.00 in
17:27 27.3 °F 14.1 °F 29.98 in NW 10.3 mph 22.0 mph 57 % 0.00 in
17:32 27.3 °F 13.7 °F 29.98 in WNW 7.5 mph 23.0 mph 56 % 0.00 in
17:37 27.2 °F 14.0 °F 29.98 in West 11.5 mph 24.2 mph 57 % 0.00 in
17:42 27.3 °F 14.1 °F 29.98 in WNW 15.9 mph 27.0 mph 57 % 0.00 in
17:47 27.3 °F 14.1 °F 29.98 in West 10.9 mph 19.6 mph 57 % 0.00 in
17:52 27.4 °F 14.5 °F 29.98 in West 10.3 mph 19.0 mph 58 % 0.00 in
17:57 27.4 °F 14.1 °F 29.99 in NW 11.4 mph 19.6 mph 57 % 0.00 in
18:07 27.3 °F 14.1 °F 29.99 in WNW 12.8 mph 20.7 mph 57 % 0.00 in
18:18 27.2 °F 14.4 °F 29.99 in WNW 16.0 mph 29.0 mph 58 % 0.00 in
18:23 27.2 °F 14.4 °F 30.00 in NW 15.3 mph 25.3 mph 58 % 0.00 in
18:28 27.2 °F 14.8 °F 30.00 in West 9.3 mph 19.6 mph 59 % 0.00 in
18:33 27.3 °F 15.2 °F 30.00 in WNW 12.0 mph 20.7 mph 60 % 0.00 in
18:38 27.4 °F 14.5 °F 30.00 in WNW 10.8 mph 18.4 mph 58 % 0.00 in
18:43 27.4 °F 14.9 °F 30.00 in WSW 13.9 mph 24.2 mph 59 % 0.00 in
18:48 27.4 °F 14.9 °F 30.00 in WNW 11.6 mph 17.3 mph 59 % 0.00 in
18:58 27.4 °F 14.9 °F 30.00 in WNW 11.3 mph 20.7 mph 59 % 0.00 in
19:03 27.4 °F 14.5 °F 30.01 in NW 9.0 mph 9.0 mph 58 % 0.00 in
19:09 27.4 °F 14.5 °F 30.01 in NW 11.4 mph 21.9 mph 58 % 0.00 in
19:14 27.5 °F 15.0 °F 30.02 in West 12.9 mph 26.5 mph 59 % 0.00 in
19:19 27.6 °F 14.7 °F 30.02 in WNW 12.1 mph 20.0 mph 58 % 0.00 in
19:29 27.6 °F 14.7 °F 30.01 in West 13.9 mph 26.5 mph 58 % 0.00 in
19:34 27.6 °F 14.7 °F 30.01 in WNW 12.6 mph 20.7 mph 58 % 0.00 in
19:39 27.6 °F 15.1 °F 30.01 in WSW 9.7 mph 16.1 mph 59 % 0.00 in
19:44 27.6 °F 15.1 °F 30.01 in North 10.3 mph 17.3 mph 59 % 0.00 in
19:49 27.7 °F 14.8 °F 30.00 in WNW 15.6 mph 28.8 mph 58 % 0.00 in
19:55 27.7 °F 15.2 °F 30.01 in NW 9.5 mph 19.6 mph 59 % 0.00 in
20:00 27.7 °F 15.2 °F 30.01 in WSW 9.2 mph 19.6 mph 59 % 0.00 in
20:05 27.7 °F 15.2 °F 30.01 in WNW 10.9 mph 19.6 mph 59 % 0.00 in
20:10 27.7 °F 15.6 °F 30.00 in WNW 9.5 mph 18.4 mph 60 % 0.00 in
20:15 27.7 °F 15.2 °F 30.00 in SW 12.3 mph 20.7 mph 59 % 0.00 in
20:20 27.8 °F 15.7 °F 30.00 in West 12.3 mph 24.2 mph 60 % 0.00 in
20:25 27.8 °F 15.7 °F 30.01 in NW 8.9 mph 19.6 mph 60 % 0.00 in
20:35 27.9 °F 15.8 °F 30.00 in WNW 8.8 mph 17.3 mph 60 % 0.00 in
20:40 27.9 °F 16.6 °F 30.01 in NW 8.5 mph 20.7 mph 62 % 0.00 in
20:46 28.0 °F 15.9 °F 30.01 in WNW 9.1 mph 12.7 mph 60 % 0.00 in
20:51 28.0 °F 16.6 °F 30.01 in WNW 5.4 mph 19.6 mph 62 % 0.00 in
20:56 28.1 °F 16.7 °F 30.02 in NW 9.5 mph 26.5 mph 62 % 0.00 in
21:01 28.1 °F 16.7 °F 30.02 in North 11.0 mph 23.0 mph 62 % 0.00 in
21:06 28.2 °F 16.8 °F 30.02 in West 7.8 mph 11.5 mph 62 % 0.00 in
21:11 28.3 °F 16.9 °F 30.03 in West 8.3 mph 18.4 mph 62 % 0.00 in
21:16 28.2 °F 16.5 °F 30.03 in West 10.7 mph 13.8 mph 61 % 0.00 in
21:21 28.2 °F 16.5 °F 30.02 in West 5.7 mph 11.5 mph 61 % 0.00 in
21:26 28.2 °F 16.5 °F 30.03 in WNW 12.0 mph 24.0 mph 61 % 0.00 in
21:31 28.3 °F 16.9 °F 30.04 in WNW 9.5 mph 20.0 mph 62 % 0.00 in
21:37 28.3 °F 17.3 °F 30.03 in WSW 8.6 mph 14.0 mph 63 % 0.00 in
21:42 28.3 °F 16.9 °F 30.03 in WNW 6.8 mph 11.5 mph 62 % 0.00 in
21:47 28.3 °F 16.9 °F 30.03 in NW 6.1 mph 15.0 mph 62 % 0.00 in
21:52 28.3 °F 17.3 °F 30.03 in WNW 8.8 mph 19.6 mph 63 % 0.00 in
21:57 28.4 °F 17.4 °F 30.03 in WNW 7.7 mph 12.7 mph 63 % 0.00 in
22:02 28.4 °F 17.4 °F 30.02 in WSW 12.1 mph 23.0 mph 63 % 0.00 in
22:07 28.5 °F 17.1 °F 30.02 in West 10.9 mph 17.3 mph 62 % 0.00 in
22:12 28.6 °F 17.2 °F 30.03 in West 6.3 mph 15.0 mph 62 % 0.00 in
22:17 28.6 °F 17.6 °F 30.03 in NW 6.6 mph 19.6 mph 63 % 0.00 in
22:22 28.7 °F 17.7 °F 30.03 in West 9.0 mph 20.7 mph 63 % 0.00 in
22:28 28.7 °F 18.1 °F 30.03 in WNW 9.8 mph 16.1 mph 64 % 0.00 in
22:38 28.8 °F 17.8 °F 30.03 in WSW 11.4 mph 21.9 mph 63 % 0.00 in
22:43 28.9 °F 18.2 °F 30.03 in NW 7.8 mph 21.0 mph 64 % 0.00 in
22:48 29.0 °F 18.7 °F 30.03 in NW 7.5 mph 19.6 mph 65 % 0.00 in
22:53 29.0 °F 18.7 °F 30.03 in WNW 11.3 mph 20.7 mph 65 % 0.00 in
22:58 29.0 °F 18.3 °F 30.03 in NNW 9.0 mph 18.4 mph 64 % 0.00 in
23:03 29.0 °F 18.3 °F 30.03 in WNW 12.2 mph 21.0 mph 64 % 0.00 in
23:08 29.1 °F 18.8 °F 30.04 in WNW 10.0 mph 13.8 mph 65 % 0.00 in
23:13 29.1 °F 18.8 °F 30.04 in WSW 11.1 mph 13.0 mph 65 % 0.00 in
23:19 29.1 °F 18.8 °F 30.04 in WNW 10.6 mph 19.0 mph 65 % 0.00 in
23:24 29.1 °F 18.8 °F 30.05 in WSW 12.3 mph 23.0 mph 65 % 0.00 in
23:34 29.2 °F 19.2 °F 30.04 in NW 9.4 mph 16.1 mph 66 % 0.00 in
23:39 29.2 °F 18.9 °F 30.05 in West 10.7 mph 21.9 mph 65 % 0.00 in
23:44 29.2 °F 19.2 °F 30.05 in WNW 12.4 mph 20.7 mph 66 % 0.00 in
23:49 29.3 °F 19.7 °F 30.04 in WSW 7.7 mph 16.1 mph 67 % 0.00 in
23:54 29.3 °F 19.3 °F 30.03 in West 7.6 mph 15.0 mph 66 % 0.00 in
23:59 29.3 °F 19.7 °F 30.03 in West 7.0 mph 12.7 mph 67 % 0.00 in
Crab Meadow Weather
Compliments of Weather Underground - 2.75 mb

Script developed by  Jim McMurry - jmcmurry@mwt.net Adapted for the template by  Wim van der Kuil - Leuven-Template.eu

Weather Terms: Outlook - A hazardous weather outlook is issued daily to indicate that a hazardous weather or hydrologic event may occur in the next several days. The outlook will include information about potential severe thunderstorms , heavy rain or flooding, winter weather, extremes of heat or cold, etc., that may develop over the next 7 days with an emphasis on the first 24 hours of the forecast. It is intended to provide information to those who need considerable lead time to prepare for the event.